sensor_id;sensor_type;location;lat;lon;timestamp;pressure;altitude;pressure_sealevel;temperature;humidity
9525;BME280;15940;48.734;9.112;2023-07-20T00:01:08;96435.31;;;18.52;54.73
9525;BME280;15940;48.734;9.112;2023-07-20T00:03:35;96435.28;;;18.45;55.91
9525;BME280;15940;48.734;9.112;2023-07-20T00:06:02;96435.28;;;18.45;55.23
9525;BME280;15940;48.734;9.112;2023-07-20T00:08:30;96438.75;;;18.45;55.84
9525;BME280;15940;48.734;9.112;2023-07-20T00:10:57;96436.97;;;18.48;55.78
9525;BME280;15940;48.734;9.112;2023-07-20T00:13:25;96420.66;;;18.42;55.47
9525;BME280;15940;48.734;9.112;2023-07-20T00:15:52;96435.63;;;18.41;55.86
9525;BME280;15940;48.734;9.112;2023-07-20T00:18:19;96437.97;;;18.37;56.39
9525;BME280;15940;48.734;9.112;2023-07-20T00:20:47;96436.72;;;18.38;56.36
9525;BME280;15940;48.734;9.112;2023-07-20T00:23:14;96430.66;;;18.32;56.60
9525;BME280;15940;48.734;9.112;2023-07-20T00:25:41;96439.22;;;18.28;56.56
9525;BME280;15940;48.734;9.112;2023-07-20T00:28:08;96435.75;;;18.28;56.33
9525;BME280;15940;48.734;9.112;2023-07-20T00:30:38;96422.75;;;18.28;55.98
9525;BME280;15940;48.734;9.112;2023-07-20T00:33:06;96425.13;;;18.24;55.08
9525;BME280;15940;48.734;9.112;2023-07-20T00:35:33;96426.41;;;18.23;56.22
9525;BME280;15940;48.734;9.112;2023-07-20T00:38:00;96434.06;;;18.17;55.75
9525;BME280;15940;48.734;9.112;2023-07-20T00:40:27;96426.00;;;18.12;55.77
9525;BME280;15940;48.734;9.112;2023-07-20T00:42:54;96429.47;;;18.12;56.63
9525;BME280;15940;48.734;9.112;2023-07-20T00:45:21;96430.66;;;17.96;54.99
9525;BME280;15940;48.734;9.112;2023-07-20T00:47:50;96431.81;;;17.80;56.00
9525;BME280;15940;48.734;9.112;2023-07-20T00:50:17;96426.00;;;17.83;56.87
9525;BME280;15940;48.734;9.112;2023-07-20T00:52:44;96425.97;;;17.76;55.86
9525;BME280;15940;48.734;9.112;2023-07-20T00:55:11;96432.28;;;17.70;55.72
9525;BME280;15940;48.734;9.112;2023-07-20T00:57:38;96428.81;;;17.70;57.31
9525;BME280;15940;48.734;9.112;2023-07-20T01:00:07;96431.34;;;17.68;56.05
9525;BME280;15940;48.734;9.112;2023-07-20T01:02:34;96440.84;;;17.67;56.65
9525;BME280;15940;48.734;9.112;2023-07-20T01:05:04;96431.63;;;17.57;55.58
9525;BME280;15940;48.734;9.112;2023-07-20T01:07:36;96438.22;;;17.61;57.63
9525;BME280;15940;48.734;9.112;2023-07-20T01:10:12;96441.38;;;17.65;57.05
9525;BME280;15940;48.734;9.112;2023-07-20T01:12:46;96434.53;;;17.72;56.87
9525;BME280;15940;48.734;9.112;2023-07-20T01:15:14;96433.34;;;17.67;57.41
9525;BME280;15940;48.734;9.112;2023-07-20T01:17:40;96434.97;;;17.63;56.67
9525;BME280;15940;48.734;9.112;2023-07-20T01:20:13;96436.22;;;17.62;57.54
9525;BME280;15940;48.734;9.112;2023-07-20T01:23:07;96446.06;;;17.57;56.77
9525;BME280;15940;48.734;9.112;2023-07-20T01:26:11;96441.84;;;17.56;57.67
9525;BME280;15940;48.734;9.112;2023-07-20T01:29:11;96440.53;;;17.50;57.80
9525;BME280;15940;48.734;9.112;2023-07-20T01:31:46;96441.25;;;17.50;58.52
9525;BME280;15940;48.734;9.112;2023-07-20T01:34:17;96438.44;;;17.42;57.99
9525;BME280;15940;48.734;9.112;2023-07-20T01:36:46;96438.59;;;17.37;58.50
9525;BME280;15940;48.734;9.112;2023-07-20T01:39:15;96438.41;;;17.35;57.59
9525;BME280;15940;48.734;9.112;2023-07-20T01:41:43;96439.44;;;17.32;58.84
9525;BME280;15940;48.734;9.112;2023-07-20T01:44:10;96442.00;;;17.30;58.17
9525;BME280;15940;48.734;9.112;2023-07-20T01:46:37;96438.53;;;17.29;58.88
9525;BME280;15940;48.734;9.112;2023-07-20T01:49:05;96433.91;;;17.24;59.13
9525;BME280;15940;48.734;9.112;2023-07-20T01:51:32;96434.31;;;17.28;59.12
9525;BME280;15940;48.734;9.112;2023-07-20T01:53:59;96438.13;;;17.25;58.28
9525;BME280;15940;48.734;9.112;2023-07-20T01:56:26;96427.91;;;17.26;58.63
9525;BME280;15940;48.734;9.112;2023-07-20T01:58:53;96439.00;;;17.20;59.24
9525;BME280;15940;48.734;9.112;2023-07-20T02:01:20;96437.31;;;17.17;59.35
9525;BME280;15940;48.734;9.112;2023-07-20T02:03:47;96436.38;;;17.14;59.22
9525;BME280;15940;48.734;9.112;2023-07-20T02:06:16;96433.78;;;17.09;59.54
9525;BME280;15940;48.734;9.112;2023-07-20T02:08:43;96429.03;;;17.09;59.85
9525;BME280;15940;48.734;9.112;2023-07-20T02:11:10;96437.31;;;17.17;59.92
9525;BME280;15940;48.734;9.112;2023-07-20T02:13:37;96438.78;;;17.18;59.73
9525;BME280;15940;48.734;9.112;2023-07-20T02:16:04;96439.88;;;17.15;59.64
9525;BME280;15940;48.734;9.112;2023-07-20T02:18:32;96441.25;;;17.08;59.92
9525;BME280;15940;48.734;9.112;2023-07-20T02:20:58;96433.38;;;17.05;59.74
9525;BME280;15940;48.734;9.112;2023-07-20T02:23:27;96436.09;;;17.05;59.67
9525;BME280;15940;48.734;9.112;2023-07-20T02:25:54;96431.78;;;17.09;60.13
9525;BME280;15940;48.734;9.112;2023-07-20T02:28:21;96424.84;;;17.08;60.08
9525;BME280;15940;48.734;9.112;2023-07-20T02:30:47;96432.31;;;17.08;60.04
9525;BME280;15940;48.734;9.112;2023-07-20T02:33:14;96438.09;;;17.04;59.46
9525;BME280;15940;48.734;9.112;2023-07-20T02:35:41;96443.53;;;16.97;59.92
9525;BME280;15940;48.734;9.112;2023-07-20T02:38:08;96433.81;;;16.96;60.66
9525;BME280;15940;48.734;9.112;2023-07-20T02:40:37;96438.44;;;17.01;60.41
9525;BME280;15940;48.734;9.112;2023-07-20T02:43:03;96438.63;;;17.03;60.53
9525;BME280;15940;48.734;9.112;2023-07-20T02:45:30;96445.25;;;17.07;60.55
9525;BME280;15940;48.734;9.112;2023-07-20T02:47:57;96434.72;;;17.11;59.87
9525;BME280;15940;48.734;9.112;2023-07-20T02:50:24;96437.25;;;17.09;60.36
9525;BME280;15940;48.734;9.112;2023-07-20T02:52:51;96449.13;;;17.12;60.24
9525;BME280;15940;48.734;9.112;2023-07-20T02:55:18;96446.72;;;17.08;60.29
9525;BME280;15940;48.734;9.112;2023-07-20T02:57:47;96458.22;;;17.07;60.28
9525;BME280;15940;48.734;9.112;2023-07-20T03:00:15;96457.25;;;17.04;60.04
9525;BME280;15940;48.734;9.112;2023-07-20T03:02:42;96458.31;;;17.01;60.39
9525;BME280;15940;48.734;9.112;2023-07-20T03:05:09;96455.59;;;17.01;60.45
9525;BME280;15940;48.734;9.112;2023-07-20T03:07:36;96447.72;;;16.98;60.96
9525;BME280;15940;48.734;9.112;2023-07-20T03:10:04;96451.31;;;16.93;60.47
9525;BME280;15940;48.734;9.112;2023-07-20T03:12:33;96446.19;;;16.89;60.97
9525;BME280;15940;48.734;9.112;2023-07-20T03:15:02;96449.50;;;16.95;60.67
9525;BME280;15940;48.734;9.112;2023-07-20T03:17:29;96447.44;;;16.88;60.83
9525;BME280;15940;48.734;9.112;2023-07-20T03:19:56;96453.72;;;16.96;61.09
9525;BME280;15940;48.734;9.112;2023-07-20T03:22:23;96453.41;;;16.87;60.70
9525;BME280;15940;48.734;9.112;2023-07-20T03:24:50;96451.22;;;16.85;61.37
9525;BME280;15940;48.734;9.112;2023-07-20T03:27:18;96459.22;;;16.83;61.29
9525;BME280;15940;48.734;9.112;2023-07-20T03:29:44;96465.56;;;16.78;61.59
9525;BME280;15940;48.734;9.112;2023-07-20T03:32:13;96456.09;;;16.79;61.64
9525;BME280;15940;48.734;9.112;2023-07-20T03:34:40;96463.63;;;16.86;61.09
9525;BME280;15940;48.734;9.112;2023-07-20T03:37:07;96464.69;;;16.83;60.59
9525;BME280;15940;48.734;9.112;2023-07-20T03:39:34;96465.22;;;16.81;61.63
9525;BME280;15940;48.734;9.112;2023-07-20T03:42:01;96463.34;;;16.76;60.82
9525;BME280;15940;48.734;9.112;2023-07-20T03:44:28;96460.59;;;16.76;61.19
9525;BME280;15940;48.734;9.112;2023-07-20T03:46:55;96465.56;;;16.78;61.92
9525;BME280;15940;48.734;9.112;2023-07-20T03:49:23;96465.34;;;16.76;61.53
9525;BME280;15940;48.734;9.112;2023-07-20T03:51:50;96459.56;;;16.79;62.18
9525;BME280;15940;48.734;9.112;2023-07-20T03:54:17;96463.44;;;16.84;61.70
9525;BME280;15940;48.734;9.112;2023-07-20T03:56:44;96464.16;;;16.84;61.68
9525;BME280;15940;48.734;9.112;2023-07-20T03:59:12;96464.84;;;16.77;61.70
9525;BME280;15940;48.734;9.112;2023-07-20T04:01:39;96464.50;;;16.81;61.96
9525;BME280;15940;48.734;9.112;2023-07-20T04:04:07;96460.84;;;16.78;61.68
9525;BME280;15940;48.734;9.112;2023-07-20T04:06:35;96463.56;;;16.78;61.88
9525;BME280;15940;48.734;9.112;2023-07-20T04:09:03;96464.50;;;16.81;62.69
9525;BME280;15940;48.734;9.112;2023-07-20T04:11:31;96468.91;;;16.84;62.06
9525;BME280;15940;48.734;9.112;2023-07-20T04:13:58;96476.66;;;16.93;62.00
9525;BME280;15940;48.734;9.112;2023-07-20T04:16:25;96474.34;;;16.97;60.97
9525;BME280;15940;48.734;9.112;2023-07-20T04:18:55;96477.16;;;17.05;61.31
9525;BME280;15940;48.734;9.112;2023-07-20T04:21:22;96479.03;;;17.10;61.08
9525;BME280;15940;48.734;9.112;2023-07-20T04:23:50;96477.13;;;17.18;60.67
9525;BME280;15940;48.734;9.112;2023-07-20T04:26:17;96478.78;;;17.21;60.79
9525;BME280;15940;48.734;9.112;2023-07-20T04:28:44;96475.50;;;17.23;60.96
9525;BME280;15940;48.734;9.112;2023-07-20T04:31:12;96481.19;;;17.25;61.53
9525;BME280;15940;48.734;9.112;2023-07-20T04:33:39;96479.59;;;17.29;60.67
9525;BME280;15940;48.734;9.112;2023-07-20T04:36:07;96476.84;;;17.50;60.40
9525;BME280;15940;48.734;9.112;2023-07-20T04:38:34;96473.78;;;17.54;59.64
9525;BME280;15940;48.734;9.112;2023-07-20T04:41:03;96477.91;;;17.68;59.68
9525;BME280;15940;48.734;9.112;2023-07-20T04:43:29;96476.34;;;17.73;59.33
9525;BME280;15940;48.734;9.112;2023-07-20T04:45:56;96471.06;;;17.75;59.33
9525;BME280;15940;48.734;9.112;2023-07-20T04:48:27;96475.41;;;17.70;59.48
9525;BME280;15940;48.734;9.112;2023-07-20T04:50:53;96480.75;;;17.76;59.75
9525;BME280;15940;48.734;9.112;2023-07-20T04:53:21;96476.44;;;17.67;59.93
9525;BME280;15940;48.734;9.112;2023-07-20T04:55:49;96473.81;;;17.75;59.76
9525;BME280;15940;48.734;9.112;2023-07-20T04:58:22;96480.28;;;17.85;59.37
9525;BME280;15940;48.734;9.112;2023-07-20T05:00:49;96480.88;;;17.91;59.33
9525;BME280;15940;48.734;9.112;2023-07-20T05:03:17;96476.13;;;17.91;59.79
9525;BME280;15940;48.734;9.112;2023-07-20T05:05:44;96484.00;;;17.95;59.02
9525;BME280;15940;48.734;9.112;2023-07-20T05:08:11;96484.97;;;18.05;59.26
9525;BME280;15940;48.734;9.112;2023-07-20T05:10:38;96483.34;;;18.10;58.98
9525;BME280;15940;48.734;9.112;2023-07-20T05:13:04;96478.63;;;18.10;58.76
9525;BME280;15940;48.734;9.112;2023-07-20T05:15:34;96476.00;;;18.05;59.01
9525;BME280;15940;48.734;9.112;2023-07-20T05:18:01;96479.69;;;18.07;58.61
9525;BME280;15940;48.734;9.112;2023-07-20T05:20:28;96483.41;;;18.17;58.49
9525;BME280;15940;48.734;9.112;2023-07-20T05:22:55;96483.81;;;18.21;58.38
9525;BME280;15940;48.734;9.112;2023-07-20T05:25:22;96476.84;;;18.20;57.80
9525;BME280;15940;48.734;9.112;2023-07-20T05:27:49;96483.59;;;18.19;58.34
9525;BME280;15940;48.734;9.112;2023-07-20T05:30:16;96481.59;;;18.20;58.41
9525;BME280;15940;48.734;9.112;2023-07-20T05:32:44;96482.34;;;18.20;58.82
9525;BME280;15940;48.734;9.112;2023-07-20T05:35:13;96482.66;;;18.17;59.13
9525;BME280;15940;48.734;9.112;2023-07-20T05:37:42;96480.13;;;18.19;58.88
9525;BME280;15940;48.734;9.112;2023-07-20T05:40:10;96472.44;;;18.17;59.00
9525;BME280;15940;48.734;9.112;2023-07-20T05:42:38;96472.84;;;18.21;59.73
9525;BME280;15940;48.734;9.112;2023-07-20T05:45:06;96481.06;;;18.21;58.81
9525;BME280;15940;48.734;9.112;2023-07-20T05:47:33;96474.13;;;18.28;57.98
9525;BME280;15940;48.734;9.112;2023-07-20T05:50:01;96481.47;;;18.33;59.08
9525;BME280;15940;48.734;9.112;2023-07-20T05:52:29;96473.84;;;18.39;59.41
9525;BME280;15940;48.734;9.112;2023-07-20T05:54:56;96479.56;;;18.49;58.68
9525;BME280;15940;48.734;9.112;2023-07-20T05:57:23;96478.47;;;18.52;58.99
9525;BME280;15940;48.734;9.112;2023-07-20T05:59:50;96491.69;;;18.61;57.54
9525;BME280;15940;48.734;9.112;2023-07-20T06:02:17;96487.09;;;18.64;58.04
9525;BME280;15940;48.734;9.112;2023-07-20T06:04:44;96483.59;;;18.55;58.28
9525;BME280;15940;48.734;9.112;2023-07-20T06:07:13;96498.63;;;18.62;58.42
9525;BME280;15940;48.734;9.112;2023-07-20T06:09:40;96484.38;;;18.64;58.65
9525;BME280;15940;48.734;9.112;2023-07-20T06:12:08;96484.25;;;18.69;58.25
9525;BME280;15940;48.734;9.112;2023-07-20T06:14:35;96489.38;;;18.73;57.62
9525;BME280;15940;48.734;9.112;2023-07-20T06:17:02;96489.78;;;18.77;57.44
9525;BME280;15940;48.734;9.112;2023-07-20T06:19:29;96485.94;;;18.80;57.29
9525;BME280;15940;48.734;9.112;2023-07-20T06:21:56;96486.28;;;18.76;58.51
9525;BME280;15940;48.734;9.112;2023-07-20T06:24:24;96494.31;;;18.74;58.83
9525;BME280;15940;48.734;9.112;2023-07-20T06:26:51;96488.09;;;18.74;58.81
9525;BME280;15940;48.734;9.112;2023-07-20T06:29:18;96489.78;;;18.77;58.14
9525;BME280;15940;48.734;9.112;2023-07-20T06:31:45;96490.69;;;18.79;58.51
9525;BME280;15940;48.734;9.112;2023-07-20T06:34:12;96490.72;;;18.87;57.66
9525;BME280;15940;48.734;9.112;2023-07-20T06:36:39;96495.66;;;18.89;58.24
9525;BME280;15940;48.734;9.112;2023-07-20T06:39:06;96487.78;;;18.93;58.96
9525;BME280;15940;48.734;9.112;2023-07-20T06:41:34;96483.41;;;18.90;59.00
9525;BME280;15940;48.734;9.112;2023-07-20T06:44:01;96483.94;;;18.88;58.90
9525;BME280;15940;48.734;9.112;2023-07-20T06:46:28;96490.00;;;18.87;58.97
9525;BME280;15940;48.734;9.112;2023-07-20T06:48:55;96493.97;;;18.86;59.01
9525;BME280;15940;48.734;9.112;2023-07-20T06:51:22;96491.25;;;18.86;58.74
9525;BME280;15940;48.734;9.112;2023-07-20T06:53:49;96494.59;;;18.99;59.20
9525;BME280;15940;48.734;9.112;2023-07-20T06:56:16;96494.63;;;19.22;57.65
9525;BME280;15940;48.734;9.112;2023-07-20T06:58:45;96498.66;;;19.06;57.05
9525;BME280;15940;48.734;9.112;2023-07-20T07:01:11;96491.69;;;19.12;57.60
9525;BME280;15940;48.734;9.112;2023-07-20T07:03:38;96488.97;;;19.28;58.10
9525;BME280;15940;48.734;9.112;2023-07-20T07:06:05;96497.06;;;19.49;57.43
9525;BME280;15940;48.734;9.112;2023-07-20T07:08:32;96491.63;;;19.56;57.12
9525;BME280;15940;48.734;9.112;2023-07-20T07:10:59;96489.06;;;19.74;56.24
9525;BME280;15940;48.734;9.112;2023-07-20T07:13:26;96480.09;;;19.73;56.71
9525;BME280;15940;48.734;9.112;2023-07-20T07:15:54;96485.03;;;19.75;55.59
9525;BME280;15940;48.734;9.112;2023-07-20T07:18:23;96481.91;;;19.63;56.33
9525;BME280;15940;48.734;9.112;2023-07-20T07:20:51;96489.59;;;20.03;55.85
9525;BME280;15940;48.734;9.112;2023-07-20T07:23:18;96477.47;;;20.21;54.89
9525;BME280;15940;48.734;9.112;2023-07-20T07:25:46;96478.34;;;20.31;54.91
9525;BME280;15940;48.734;9.112;2023-07-20T07:28:13;96477.06;;;20.24;55.20
9525;BME280;15940;48.734;9.112;2023-07-20T07:30:41;96479.25;;;20.41;53.76
9525;BME280;15940;48.734;9.112;2023-07-20T07:33:09;96477.56;;;20.61;53.22
9525;BME280;15940;48.734;9.112;2023-07-20T07:35:36;96479.53;;;20.76;53.51
9525;BME280;15940;48.734;9.112;2023-07-20T07:38:03;96466.66;;;20.78;52.67
9525;BME280;15940;48.734;9.112;2023-07-20T07:40:30;96473.91;;;20.99;53.67
9525;BME280;15940;48.734;9.112;2023-07-20T07:42:57;96464.22;;;21.23;52.16
9525;BME280;15940;48.734;9.112;2023-07-20T07:45:24;96463.31;;;21.20;52.25
9525;BME280;15940;48.734;9.112;2023-07-20T07:47:51;96473.09;;;21.46;52.50
9525;BME280;15940;48.734;9.112;2023-07-20T07:50:20;96461.38;;;21.63;51.76
9525;BME280;15940;48.734;9.112;2023-07-20T07:52:46;96464.16;;;21.63;51.80
9525;BME280;15940;48.734;9.112;2023-07-20T07:55:13;96459.38;;;21.63;51.52
9525;BME280;15940;48.734;9.112;2023-07-20T07:57:42;96464.75;;;21.29;51.24
9525;BME280;15940;48.734;9.112;2023-07-20T08:00:10;96466.53;;;20.61;52.27
9525;BME280;15940;48.734;9.112;2023-07-20T08:02:41;96469.97;;;20.77;51.61
9525;BME280;15940;48.734;9.112;2023-07-20T08:05:09;96463.94;;;21.03;51.47
9525;BME280;15940;48.734;9.112;2023-07-20T08:07:37;96476.47;;;21.37;52.75
9525;BME280;15940;48.734;9.112;2023-07-20T08:10:06;96466.84;;;21.71;50.71
9525;BME280;15940;48.734;9.112;2023-07-20T08:12:34;96468.06;;;21.77;49.39
9525;BME280;15940;48.734;9.112;2023-07-20T08:15:01;96462.13;;;21.63;51.74
9525;BME280;15940;48.734;9.112;2023-07-20T08:17:29;96461.78;;;21.59;51.93
9525;BME280;15940;48.734;9.112;2023-07-20T08:19:56;96463.69;;;21.49;51.23
9525;BME280;15940;48.734;9.112;2023-07-20T08:22:23;96452.75;;;21.84;51.68
9525;BME280;15940;48.734;9.112;2023-07-20T08:24:51;96458.94;;;21.92;49.50
9525;BME280;15940;48.734;9.112;2023-07-20T08:27:18;96458.81;;;22.42;48.11
9525;BME280;15940;48.734;9.112;2023-07-20T08:29:45;96456.91;;;22.79;46.96
9525;BME280;15940;48.734;9.112;2023-07-20T08:32:12;96458.16;;;23.13;47.03
9525;BME280;15940;48.734;9.112;2023-07-20T08:34:41;96456.56;;;23.19;44.15
9525;BME280;15940;48.734;9.112;2023-07-20T08:37:08;96458.53;;;22.82;46.24
9525;BME280;15940;48.734;9.112;2023-07-20T08:39:36;96455.75;;;22.20;47.10
9525;BME280;15940;48.734;9.112;2023-07-20T08:42:06;96461.50;;;21.73;48.54
9525;BME280;15940;48.734;9.112;2023-07-20T08:44:33;96465.72;;;21.49;48.67
9525;BME280;15940;48.734;9.112;2023-07-20T08:47:01;96470.81;;;21.77;48.00
9525;BME280;15940;48.734;9.112;2023-07-20T08:49:30;96472.41;;;22.05;48.82
9525;BME280;15940;48.734;9.112;2023-07-20T08:51:58;96466.22;;;21.97;49.31
9525;BME280;15940;48.734;9.112;2023-07-20T08:54:30;96463.69;;;22.16;48.93
9525;BME280;15940;48.734;9.112;2023-07-20T08:56:59;96459.53;;;22.77;46.08
9525;BME280;15940;48.734;9.112;2023-07-20T08:59:29;96455.13;;;23.18;46.09
9525;BME280;15940;48.734;9.112;2023-07-20T09:01:59;96460.00;;;23.74;46.57
9525;BME280;15940;48.734;9.112;2023-07-20T09:04:26;96461.50;;;23.94;44.86
9525;BME280;15940;48.734;9.112;2023-07-20T09:06:53;96461.75;;;23.69;44.87
9525;BME280;15940;48.734;9.112;2023-07-20T09:09:20;96457.13;;;23.45;44.86
9525;BME280;15940;48.734;9.112;2023-07-20T09:11:47;96449.84;;;23.49;46.17
9525;BME280;15940;48.734;9.112;2023-07-20T09:14:15;96453.78;;;23.46;45.30
9525;BME280;15940;48.734;9.112;2023-07-20T09:16:53;96448.72;;;22.89;45.02
9525;BME280;15940;48.734;9.112;2023-07-20T09:19:20;96445.22;;;22.71;43.60
9525;BME280;15940;48.734;9.112;2023-07-20T09:21:49;96450.66;;;22.96;45.14
9525;BME280;15940;48.734;9.112;2023-07-20T09:24:18;96440.84;;;23.12;43.17
9525;BME280;15940;48.734;9.112;2023-07-20T09:26:48;96446.03;;;23.35;43.81
9525;BME280;15940;48.734;9.112;2023-07-20T09:29:18;96440.28;;;22.87;45.16
9525;BME280;15940;48.734;9.112;2023-07-20T09:31:59;96453.03;;;22.65;45.39
9525;BME280;15940;48.734;9.112;2023-07-20T09:34:28;96456.88;;;22.35;46.34
9525;BME280;15940;48.734;9.112;2023-07-20T09:36:55;96451.91;;;21.99;47.79
9525;BME280;15940;48.734;9.112;2023-07-20T09:39:22;96459.41;;;21.98;47.40
9525;BME280;15940;48.734;9.112;2023-07-20T09:41:51;96444.38;;;21.74;47.78
9525;BME280;15940;48.734;9.112;2023-07-20T09:44:19;96450.84;;;21.69;47.34
9525;BME280;15940;48.734;9.112;2023-07-20T09:46:47;96446.28;;;22.06;46.94
9525;BME280;15940;48.734;9.112;2023-07-20T09:49:17;96447.03;;;22.41;44.73
9525;BME280;15940;48.734;9.112;2023-07-20T09:51:45;96437.66;;;22.71;44.89
9525;BME280;15940;48.734;9.112;2023-07-20T09:54:13;96441.91;;;23.26;44.42
9525;BME280;15940;48.734;9.112;2023-07-20T09:56:41;96442.59;;;23.90;42.29
9525;BME280;15940;48.734;9.112;2023-07-20T09:59:09;96440.31;;;24.45;43.42
9525;BME280;15940;48.734;9.112;2023-07-20T10:01:37;96451.66;;;24.68;39.40
9525;BME280;15940;48.734;9.112;2023-07-20T10:04:09;96443.53;;;24.41;40.26
9525;BME280;15940;48.734;9.112;2023-07-20T10:06:42;96448.78;;;23.62;41.95
9525;BME280;15940;48.734;9.112;2023-07-20T10:09:10;96440.75;;;23.29;43.69
9525;BME280;15940;48.734;9.112;2023-07-20T10:11:49;96444.84;;;23.28;43.43
9525;BME280;15940;48.734;9.112;2023-07-20T10:14:20;96434.28;;;23.07;43.66
9525;BME280;15940;48.734;9.112;2023-07-20T10:16:51;96431.31;;;22.78;42.74
9525;BME280;15940;48.734;9.112;2023-07-20T10:19:24;96427.97;;;22.97;44.22
9525;BME280;15940;48.734;9.112;2023-07-20T10:22:00;96418.38;;;23.35;42.63
9525;BME280;15940;48.734;9.112;2023-07-20T10:24:28;96427.41;;;23.72;43.26
9525;BME280;15940;48.734;9.112;2023-07-20T10:26:55;96423.09;;;23.98;40.53
9525;BME280;15940;48.734;9.112;2023-07-20T10:29:24;96414.94;;;24.29;40.62
9525;BME280;15940;48.734;9.112;2023-07-20T10:31:53;96425.28;;;24.58;40.11
9525;BME280;15940;48.734;9.112;2023-07-20T10:34:21;96416.13;;;24.65;41.81
9525;BME280;15940;48.734;9.112;2023-07-20T10:36:48;96404.97;;;24.94;41.43
9525;BME280;15940;48.734;9.112;2023-07-20T10:39:27;96404.34;;;25.46;40.38
9525;BME280;15940;48.734;9.112;2023-07-20T10:42:01;96399.59;;;25.58;37.59
9525;BME280;15940;48.734;9.112;2023-07-20T10:44:29;96401.19;;;25.61;38.70
9525;BME280;15940;48.734;9.112;2023-07-20T10:47:00;96407.69;;;25.13;37.64
9525;BME280;15940;48.734;9.112;2023-07-20T10:49:27;96414.22;;;24.29;38.85
9525;BME280;15940;48.734;9.112;2023-07-20T10:51:58;96410.97;;;23.84;39.76
9525;BME280;15940;48.734;9.112;2023-07-20T10:54:47;96410.41;;;24.24;39.89
9525;BME280;15940;48.734;9.112;2023-07-20T10:57:29;96396.28;;;24.68;39.65
9525;BME280;15940;48.734;9.112;2023-07-20T11:00:10;96390.97;;;24.82;39.23
9525;BME280;15940;48.734;9.112;2023-07-20T11:02:46;96381.69;;;25.18;37.84
9525;BME280;15940;48.734;9.112;2023-07-20T11:05:37;96382.56;;;25.52;36.95
9525;BME280;15940;48.734;9.112;2023-07-20T11:08:08;96394.09;;;25.48;34.75
9525;BME280;15940;48.734;9.112;2023-07-20T11:10:37;96385.09;;;25.07;36.82
9525;BME280;15940;48.734;9.112;2023-07-20T11:13:28;96395.44;;;24.46;37.35
9525;BME280;15940;48.734;9.112;2023-07-20T11:16:04;96395.88;;;24.33;37.10
9525;BME280;15940;48.734;9.112;2023-07-20T11:18:34;96386.97;;;24.15;38.37
9525;BME280;15940;48.734;9.112;2023-07-20T11:21:09;96397.88;;;23.94;39.11
9525;BME280;15940;48.734;9.112;2023-07-20T11:23:38;96394.84;;;23.90;37.81
9525;BME280;15940;48.734;9.112;2023-07-20T11:26:07;96395.09;;;23.84;39.23
9525;BME280;15940;48.734;9.112;2023-07-20T11:28:35;96404.78;;;23.56;39.84
9525;BME280;15940;48.734;9.112;2023-07-20T11:31:02;96391.34;;;23.33;38.22
9525;BME280;15940;48.734;9.112;2023-07-20T11:33:29;96385.94;;;23.35;39.66
9525;BME280;15940;48.734;9.112;2023-07-20T11:35:56;96385.34;;;23.83;39.25
9525;BME280;15940;48.734;9.112;2023-07-20T11:38:24;96379.13;;;24.31;37.04
9525;BME280;15940;48.734;9.112;2023-07-20T11:40:51;96381.38;;;24.83;36.79
9525;BME280;15940;48.734;9.112;2023-07-20T11:43:19;96367.63;;;24.95;37.08
9525;BME280;15940;48.734;9.112;2023-07-20T11:45:49;96369.81;;;24.96;36.80
9525;BME280;15940;48.734;9.112;2023-07-20T11:48:16;96355.56;;;24.81;36.83
9525;BME280;15940;48.734;9.112;2023-07-20T11:50:43;96369.56;;;24.73;38.16
9525;BME280;15940;48.734;9.112;2023-07-20T11:53:11;96370.91;;;24.62;36.27
9525;BME280;15940;48.734;9.112;2023-07-20T11:55:38;96373.97;;;24.66;38.23
9525;BME280;15940;48.734;9.112;2023-07-20T11:58:07;96364.50;;;25.10;38.25
9525;BME280;15940;48.734;9.112;2023-07-20T12:00:38;96358.50;;;25.45;35.78
9525;BME280;15940;48.734;9.112;2023-07-20T12:03:06;96352.91;;;25.54;34.53
9525;BME280;15940;48.734;9.112;2023-07-20T12:05:34;96353.72;;;25.14;34.80
9525;BME280;15940;48.734;9.112;2023-07-20T12:08:01;96348.13;;;24.83;36.40
9525;BME280;15940;48.734;9.112;2023-07-20T12:10:28;96360.00;;;24.55;36.65
9525;BME280;15940;48.734;9.112;2023-07-20T12:13:01;96358.69;;;24.56;38.55
9525;BME280;15940;48.734;9.112;2023-07-20T12:15:30;96353.78;;;24.95;36.86
9525;BME280;15940;48.734;9.112;2023-07-20T12:18:00;96349.50;;;25.13;36.23
9525;BME280;15940;48.734;9.112;2023-07-20T12:20:30;96354.69;;;24.78;37.40
9525;BME280;15940;48.734;9.112;2023-07-20T12:23:01;96349.94;;;24.59;36.82
9525;BME280;15940;48.734;9.112;2023-07-20T12:25:48;96351.28;;;24.29;38.06
9525;BME280;15940;48.734;9.112;2023-07-20T12:28:17;96343.41;;;24.26;36.49
9525;BME280;15940;48.734;9.112;2023-07-20T12:30:46;96336.59;;;24.17;38.01
9525;BME280;15940;48.734;9.112;2023-07-20T12:33:15;96336.28;;;24.42;37.16
9525;BME280;15940;48.734;9.112;2023-07-20T12:35:42;96329.31;;;24.82;35.28
9525;BME280;15940;48.734;9.112;2023-07-20T12:38:09;96321.22;;;25.05;36.09
9525;BME280;15940;48.734;9.112;2023-07-20T12:40:36;96321.38;;;25.28;36.25
9525;BME280;15940;48.734;9.112;2023-07-20T12:43:03;96316.06;;;25.21;34.89
9525;BME280;15940;48.734;9.112;2023-07-20T12:45:30;96323.47;;;25.49;37.01
9525;BME280;15940;48.734;9.112;2023-07-20T12:47:57;96323.22;;;25.88;34.44
9525;BME280;15940;48.734;9.112;2023-07-20T12:50:27;96322.00;;;25.91;32.57
9525;BME280;15940;48.734;9.112;2023-07-20T12:52:54;96316.94;;;25.87;34.96
9525;BME280;15940;48.734;9.112;2023-07-20T12:55:21;96322.44;;;26.09;35.05
9525;BME280;15940;48.734;9.112;2023-07-20T12:57:48;96315.88;;;26.26;33.76
9525;BME280;15940;48.734;9.112;2023-07-20T13:00:16;96312.69;;;26.08;33.19
9525;BME280;15940;48.734;9.112;2023-07-20T13:02:43;96307.50;;;26.14;34.90
9525;BME280;15940;48.734;9.112;2023-07-20T13:05:10;96309.97;;;26.31;34.88
9525;BME280;15940;48.734;9.112;2023-07-20T13:07:40;96304.00;;;26.46;34.00
9525;BME280;15940;48.734;9.112;2023-07-20T13:10:09;96296.28;;;26.68;33.79
9525;BME280;15940;48.734;9.112;2023-07-20T13:12:38;96294.84;;;26.56;33.44
9525;BME280;15940;48.734;9.112;2023-07-20T13:15:07;96291.34;;;26.67;33.71
9525;BME280;15940;48.734;9.112;2023-07-20T13:17:35;96296.06;;;26.88;35.40